Time;durP1;ratioP1;P1;durP2;ratioP2;P2;SDS_P1;SDS_P2;PMS_P1;PMS_P2;Temp;Humidity;BMP_temperature;BMP_pressure;BME280_temperature;BME280_humidity;BME280_pressure;Samples;Min_cycle;Max_cycle;Signal;HPM_P1;HPM_P2
2022/05/20 00:00:39;;;;;;;65.00;41.83;;;;;;;13.73;100.00;68299.50;5029338;28;20045;-89
2022/05/20 00:03:05;;;;;;;56.67;38.42;;;;;;;13.77;100.00;68306.72;5027021;28;20843;-88
2022/05/20 00:05:31;;;;;;;58.10;42.20;;;;;;;13.77;100.00;68303.47;5027214;28;20037;-88
2022/05/20 00:07:57;;;;;;;57.15;40.17;;;;;;;13.67;100.00;68298.00;5025875;28;20049;-88
2022/05/20 00:10:22;;;;;;;62.58;40.65;;;;;;;;;;5028672;28;20100;-88
2022/05/20 00:12:49;;;;;;;58.10;38.25;;;;;;;13.62;100.00;68286.97;5042991;28;20049;-89
2022/05/20 00:15:20;;;;;;;63.10;41.55;;;;;;;13.60;100.00;68284.13;5025755;28;20056;-88
2022/05/20 00:17:46;;;;;;;60.03;39.13;;;;;;;13.53;100.00;68279.97;5024477;28;20115;-89
2022/05/20 00:20:14;;;;;;;62.88;41.72;;;;;;;13.57;100.00;68283.38;5027390;28;20045;-88
2022/05/20 00:22:39;;;;;;;60.45;40.15;;;;;;;13.45;100.00;68267.63;5024943;28;20049;-89
2022/05/20 00:27:50;;;;;;;61.67;40.40;;;;;;;13.34;100.00;68257.78;5027346;28;20048;-89
2022/05/20 00:30:16;;;;;;;61.97;40.53;;;;;;;13.26;100.00;68247.16;5028576;28;20405;-88
2022/05/20 00:32:41;;;;;;;60.47;40.35;;;;;;;;;;5028258;28;20074;-88
2022/05/20 00:35:08;;;;;;;65.68;40.97;;;;;;;13.14;100.00;68233.50;5019000;28;20057;-89
2022/05/20 00:37:33;;;;;;;61.28;40.75;;;;;;;13.06;100.00;68227.06;5025847;28;20038;-88
2022/05/20 00:39:59;;;;;;;63.17;39.40;;;;;;;12.93;100.00;68212.28;5026506;28;20053;-88
2022/05/20 00:42:24;;;;;;;62.50;39.75;;;;;;;12.91;100.00;68210.00;5025423;28;20098;-88
2022/05/20 00:44:50;;;;;;;60.47;42.72;;;;;;;13.00;100.00;68220.25;5028610;28;20064;-89
2022/05/20 00:47:15;;;;;;;58.70;41.58;;;;;;;12.88;100.00;68204.50;5025585;28;20464;-89
2022/05/20 00:49:45;;;;;;;66.28;42.85;;;;;;;;;;5027454;28;20424;-88
2022/05/20 00:52:13;;;;;;;62.90;43.13;;;;;;;12.85;100.00;68201.09;5025563;28;20042;-88
2022/05/20 00:54:45;;;;;;;63.78;42.42;;;;;;;12.79;100.00;68194.81;5028331;28;20052;-88
2022/05/20 00:57:17;;;;;;;62.08;43.03;;;;;;;;;;5027305;28;20226;-88
2022/05/20 00:59:47;;;;;;;63.78;43.83;;;;;;;12.75;100.00;68190.28;5026675;28;20133;-88
2022/05/20 01:02:18;;;;;;;68.82;42.47;;;;;;;12.68;100.00;68181.75;5027955;28;20042;-88
2022/05/20 01:04:44;;;;;;;60.25;40.55;;;;;;;12.74;100.00;68191.81;5032731;28;20053;-91
2022/05/20 01:07:10;;;;;;;72.35;47.22;;;;;;;12.77;100.00;68191.97;5053878;28;20065;-92
2022/05/20 01:09:37;;;;;;;65.10;44.65;;;;;;;12.72;100.00;68186.88;5053816;28;20029;-89
2022/05/20 01:12:06;;;;;;;69.18;47.95;;;;;;;12.74;100.00;68191.25;5034410;28;20038;-89
2022/05/20 01:14:32;;;;;;;68.80;46.60;;;;;;;12.66;100.00;68180.06;5044505;28;20076;-90
2022/05/20 01:16:58;;;;;;;65.00;42.50;;;;;;;12.63;100.00;68177.22;5052568;28;20033;-90
2022/05/20 01:19:42;;;;;;;60.63;43.15;;;;;;;;;;5043322;28;20037;-87
2022/05/20 01:22:10;;;;;;;65.18;43.88;;;;;;;12.53;100.00;68165.84;5027467;28;20044;-87
2022/05/20 01:24:36;;;;;;;63.38;42.78;;;;;;;12.49;100.00;68163.41;5027538;28;20044;-87
2022/05/20 01:27:02;;;;;;;64.60;42.75;;;;;;;12.47;100.00;68166.47;5029616;28;20045;-88
2022/05/20 01:29:27;;;;;;;61.22;39.30;;;;;;;12.41;100.00;68158.13;5029915;28;20566;-87
2022/05/20 01:31:53;;;;;;;55.72;38.55;;;;;;;12.38;100.00;68151.47;5031297;28;20570;-87
2022/05/20 01:34:20;;;;;;;57.95;38.88;;;;;;;12.32;100.00;68142.56;5029510;28;20030;-87
2022/05/20 01:36:46;;;;;;;55.95;39.38;;;;;;;12.28;100.00;68142.75;5030882;28;20050;-87
2022/05/20 01:39:11;;;;;;;59.58;40.58;;;;;;;;;;5029758;28;20464;-88
2022/05/20 01:41:49;;;;;;;62.47;41.20;;;;;;;12.18;100.00;68129.31;5038944;28;20129;-87
2022/05/20 01:44:23;;;;;;;67.07;41.72;;;;;;;12.13;100.00;68123.63;5029245;28;20299;-87
2022/05/20 01:47:01;;;;;;;60.53;40.15;;;;;;;12.14;100.00;68122.09;5031935;28;20454;-88
2022/05/20 01:49:41;;;;;;;59.78;40.92;;;;;;;12.08;100.00;68115.84;5023398;28;20090;-87
2022/05/20 01:52:31;;;;;;;55.58;39.38;;;;;;;12.04;100.00;68111.28;5022400;28;20128;-89
2022/05/20 01:55:05;;;;;;;59.03;40.58;;;;;;;11.93;100.00;68101.47;5029972;28;20045;-87
2022/05/20 01:57:39;;;;;;;59.30;38.13;;;;;;;11.89;100.00;68094.81;5030317;28;20394;-88
2022/05/20 02:00:18;;;;;;;60.95;38.60;;;;;;;;;;5043987;22;20053;-77
2022/05/20 02:03:03;;;;;;;57.97;38.60;;;;;;;11.85;100.00;68090.28;5023116;28;20521;-78
2022/05/20 02:05:46;;;;;;;54.50;38.13;;;;;;;11.93;100.00;68098.78;5025705;28;20140;-78
2022/05/20 02:08:18;;;;;;;52.33;36.88;;;;;;;11.85;100.00;68095.59;5019915;28;20099;-77
2022/05/20 02:10:53;;;;;;;51.63;35.67;;;;;;;11.76;100.00;68085.38;5027158;28;20041;-77
2022/05/20 02:13:19;;;;;;;51.00;36.70;;;;;;;11.76;100.00;68085.38;5027018;28;20042;-78
2022/05/20 02:16:02;;;;;;;50.25;35.40;;;;;;;11.73;100.00;68079.28;5022844;28;20557;-77
2022/05/20 02:18:38;;;;;;;44.53;33.63;;;;;;;11.68;100.00;68070.94;5022531;28;20056;-77
2022/05/20 02:21:10;;;;;;;43.90;34.08;;;;;;;11.66;100.00;68068.69;5020724;28;20498;-77
2022/05/20 02:23:42;;;;;;;46.47;32.88;;;;;;;11.62;100.00;68069.47;5026997;28;20072;-77
2022/05/20 02:26:12;;;;;;;43.55;32.72;;;;;;;11.61;100.00;68063.00;5017883;28;20702;-76
2022/05/20 02:28:43;;;;;;;45.55;30.83;;;;;;;11.55;100.00;68056.19;5027551;28;20053;-77
2022/05/20 02:31:16;;;;;;;44.83;32.45;;;;;;;11.54;100.00;68055.63;5026777;28;20037;-77
2022/05/20 02:33:42;;;;;;;48.58;34.90;;;;;;;11.50;100.00;68051.63;5027033;28;20042;-77
2022/05/20 02:36:17;;;;;;;51.70;37.17;;;;;;;11.50;100.00;68046.31;5028324;28;20096;-77
2022/05/20 02:38:42;;;;;;;48.28;33.55;;;;;;;11.42;100.00;68042.56;5003828;28;20041;-77
2022/05/20 02:41:08;;;;;;;46.35;33.92;;;;;;;11.44;100.00;68047.47;5027372;28;20036;-77
2022/05/20 02:43:34;;;;;;;52.80;35.65;;;;;;;11.41;100.00;68046.19;5025474;28;20449;-77
2022/05/20 02:46:00;;;;;;;49.83;33.83;;;;;;;11.42;100.00;68053.22;5025518;28;20037;-77
2022/05/20 02:48:25;;;;;;;54.05;35.08;;;;;;;11.36;100.00;68038.41;5026506;28;20034;-77
2022/05/20 02:50:51;;;;;;;66.05;38.80;;;;;;;11.29;100.00;68027.78;5029449;28;20494;-77
2022/05/20 02:53:17;;;;;;;57.65;35.70;;;;;;;11.34;100.00;68035.56;5027875;28;20045;-77
2022/05/20 02:55:42;;;;;;;60.70;33.97;;;;;;;11.27;100.00;68025.50;5025138;28;20037;-77
2022/05/20 02:58:08;;;;;;;128.48;39.83;;;;;;;11.21;100.00;68019.28;5007455;28;20552;-78
2022/05/20 03:06:01;;;;;;;166.30;48.20;;;;;;;11.04;100.00;68003.19;5017305;28;20091;-77
2022/05/20 03:08:27;;;;;;;254.57;56.00;;;;;;;;;;5012549;28;20621;-77
2022/05/20 03:10:52;;;;;;;166.95;51.83;;;;;;;11.11;100.00;68007.38;5026860;28;20045;-78
2022/05/20 03:13:18;;;;;;;132.88;55.05;;;;;;;11.15;100.00;68014.56;5019138;28;20053;-77
2022/05/20 03:15:44;;;;;;;208.13;55.25;;;;;;;11.14;100.00;68016.09;5022158;28;20117;-78
2022/05/20 03:18:11;;;;;;;337.77;65.05;;;;;;;11.09;100.00;68005.66;5021857;28;20805;-77
2022/05/20 03:20:38;;;;;;;219.40;61.78;;;;;;;11.14;100.00;68016.09;5007683;28;20562;-77
2022/05/20 03:23:05;;;;;;;221.27;56.38;;;;;;;11.11;100.00;68007.94;5004945;28;20057;-77
2022/05/20 03:25:30;;;;;;;223.23;60.28;;;;;;;11.14;100.00;68013.44;5007295;28;20045;-77
2022/05/20 03:27:56;;;;;;;155.95;57.13;;;;;;;11.10;100.00;68009.44;5008768;28;20038;-77
2022/05/20 03:30:21;;;;;;;151.38;59.00;;;;;;;11.18;100.00;68015.31;5018909;28;20120;-77
2022/05/20 03:32:46;;;;;;;144.00;59.03;;;;;;;11.18;100.00;68015.31;5026262;28;20034;-77
2022/05/20 03:35:13;;;;;;;151.20;56.70;;;;;;;11.12;100.00;68008.50;5026446;28;20037;-77
2022/05/20 03:37:39;;;;;;;208.05;63.05;;;;;;;11.07;100.00;68003.94;5025509;28;20387;-78
2022/05/20 03:40:05;;;;;;;176.90;65.00;;;;;;;11.12;100.00;68008.50;5027218;28;20044;-77
2022/05/20 03:42:31;;;;;;;211.85;64.00;;;;;;;11.14;100.00;68013.44;5023052;28;20057;-78
2022/05/20 03:44:56;;;;;;;323.25;77.38;;;;;;;;;;5014641;28;20046;-78
2022/05/20 03:47:22;;;;;;;345.73;74.67;;;;;;;11.02;100.00;67998.28;5015727;28;20551;-78
2022/05/20 03:49:47;;;;;;;235.55;72.97;;;;;;;11.12;100.00;68011.16;5023673;28;20318;-77
2022/05/20 03:52:13;;;;;;;305.92;77.72;;;;;;;11.16;100.00;68015.69;5012103;28;20405;-78
2022/05/20 03:54:39;;;;;;;279.42;74.15;;;;;;;11.17;100.00;68019.50;5028195;28;20032;-78
2022/05/20 03:57:05;;;;;;;239.32;71.43;;;;;;;11.21;100.00;68019.28;5054571;28;20900;-77
2022/05/20 03:59:35;;;;;;;356.52;82.20;;;;;;;11.20;100.00;68017.56;5013303;28;20529;-78
2022/05/20 04:02:00;;;;;;;287.90;77.60;;;;;;;;;;5019151;28;20048;-77
2022/05/20 04:04:38;;;;;;;266.92;75.78;;;;;;;11.22;100.00;68020.41;5016843;28;20038;-77
2022/05/20 04:07:12;;;;;;;235.27;80.93;;;;;;;11.32;100.00;68031.19;5016803;28;20053;-78
2022/05/20 04:09:38;;;;;;;360.50;89.07;;;;;;;11.35;100.00;68034.59;5022439;28;20041;-78
2022/05/20 04:12:06;;;;;;;333.27;87.55;;;;;;;11.36;100.00;68035.72;5018312;28;20041;-78
2022/05/20 04:14:33;;;;;;;377.08;84.35;;;;;;;11.38;100.00;68042.78;5026923;28;20060;-78
2022/05/20 04:16:58;;;;;;;429.63;87.88;;;;;;;;;;5026991;28;20414;-78
2022/05/20 04:19:25;;;;;;;269.77;78.18;;;;;;;11.47;100.00;68053.00;5025629;28;20046;-80
2022/05/20 04:21:52;;;;;;;375.85;88.55;;;;;;;11.52;100.00;68053.91;5029358;28;20041;-79
2022/05/20 04:24:19;;;;;;;463.92;93.03;;;;;;;11.52;100.00;68056.56;5024926;28;20036;-79
2022/05/20 04:26:45;;;;;;;579.47;97.90;;;;;;;11.43;100.00;68043.13;5019789;28;20037;-78
2022/05/20 04:29:10;;;;;;;345.85;90.20;;;;;;;11.55;100.00;68056.75;5013482;28;20037;-79
2022/05/20 04:31:36;;;;;;;448.27;94.95;;;;;;;;;;5010776;28;20431;-78
2022/05/20 04:34:02;;;;;;;455.60;96.70;;;;;;;11.52;100.00;68059.25;5009325;28;20041;-78
2022/05/20 04:36:27;;;;;;;445.60;104.57;;;;;;;11.67;100.00;68073.03;5030467;28;20422;-79
2022/05/20 04:38:52;;;;;;;455.67;106.28;;;;;;;11.73;100.00;68081.97;5025231;28;20045;-78
2022/05/20 04:46:58;;;;;;;426.23;102.75;;;;;;;11.82;100.00;68086.84;5043427;28;20049;-77
2022/05/20 04:49:25;;;;;;;325.75;97.43;;;;;;;11.81;100.00;68085.16;5041009;28;20037;-79
2022/05/20 04:51:50;;;;;;;439.40;100.78;;;;;;;11.81;100.00;68085.72;5020606;28;20048;-78
2022/05/20 04:57:00;;;;;;;287.42;89.10;;;;;;;11.75;100.00;68081.56;5024143;28;20095;-79
2022/05/20 04:59:25;;;;;;;476.63;103.35;;;;;;;11.75;100.00;68084.22;5019630;28;20038;-79
2022/05/20 05:01:51;;;;;;;440.98;104.45;;;;;;;11.79;100.00;68082.88;5035683;28;20069;-78
2022/05/20 05:04:18;;;;;;;286.63;100.63;;;;;;;11.82;100.00;68086.84;5033430;28;20041;-79
2022/05/20 05:06:44;;;;;;;315.23;97.45;;;;;;;11.89;100.00;68094.25;5030655;28;20418;-78
2022/05/20 05:09:09;;;;;;;205.50;85.85;;;;;;;11.90;100.00;68095.38;5030233;28;20033;-79
2022/05/20 05:11:39;;;;;;;189.15;89.00;;;;;;;11.98;100.00;68109.25;5030749;28;20038;-79
2022/05/20 05:14:07;;;;;;;183.63;86.95;;;;;;;12.00;100.00;68106.75;5042595;28;20498;-79
2022/05/20 05:16:32;;;;;;;229.70;97.28;;;;;;;;;;5031550;28;20041;-79
2022/05/20 05:18:58;;;;;;;279.52;98.28;;;;;;;;;;5046123;28;20462;-79
2022/05/20 05:21:23;;;;;;;302.87;92.43;;;;;;;12.07;100.00;68116.81;5029042;28;20041;-78
2022/05/20 05:23:48;;;;;;;291.52;99.57;;;;;;;12.17;100.00;68128.75;5032505;28;20308;-79
2022/05/20 05:26:14;;;;;;;321.00;104.93;;;;;;;;;;5031256;28;20046;-78
2022/05/20 05:28:39;;;;;;;305.30;97.50;;;;;;;12.23;100.00;68137.06;5029368;28;20168;-79
2022/05/20 05:31:05;;;;;;;277.70;95.72;;;;;;;12.25;100.00;68139.34;5024444;28;20045;-79
2022/05/20 05:33:30;;;;;;;212.30;90.40;;;;;;;12.27;100.00;68136.88;5037051;28;20041;-78
2022/05/20 05:35:55;;;;;;;187.35;88.20;;;;;;;12.33;100.00;68143.69;5024435;28;20044;-78
2022/05/20 05:38:21;;;;;;;254.90;91.82;;;;;;;12.35;100.00;68151.28;5028696;28;20490;-79
2022/05/20 05:40:46;;;;;;;212.63;91.30;;;;;;;12.36;100.00;68146.53;5029053;28;20049;-78
2022/05/20 05:43:11;;;;;;;197.77;87.93;;;;;;;;;;5028340;28;20486;-77
2022/05/20 05:45:37;;;;;;;224.15;92.65;;;;;;;12.44;100.00;68157.72;5028375;28;20103;-79
2022/05/20 05:48:05;;;;;;;185.60;84.93;;;;;;;12.51;100.00;68163.56;5030199;28;20060;-78
2022/05/20 05:50:32;;;;;;;165.18;82.75;;;;;;;12.57;100.00;68169.81;5035830;28;20124;-78
2022/05/20 05:53:00;;;;;;;162.13;80.10;;;;;;;12.61;100.00;68174.38;5035456;28;20037;-78
2022/05/20 05:55:27;;;;;;;158.48;76.90;;;;;;;12.64;100.00;68178.34;5027424;28;20037;-78
2022/05/20 05:57:53;;;;;;;151.95;85.32;;;;;;;12.79;100.00;68196.94;5037533;28;20041;-78
2022/05/20 06:00:19;;;;;;;139.05;80.70;;;;;;;12.85;100.00;68201.09;5032443;28;20374;-79
2022/05/20 06:02:45;;;;;;;146.00;80.15;;;;;;;12.95;100.00;68211.91;5038231;28;20472;-78
2022/05/20 06:05:10;;;;;;;150.68;82.65;;;;;;;;;;5027210;28;20047;-78
2022/05/20 06:07:35;;;;;;;127.25;71.03;;;;;;;13.13;100.00;68234.47;5017758;28;20471;-78
2022/05/20 06:10:01;;;;;;;139.52;70.00;;;;;;;;;;5023435;28;20038;-78
2022/05/20 06:12:27;;;;;;;108.22;65.82;;;;;;;13.24;100.00;68244.88;5040975;28;20098;-79
2022/05/20 06:14:53;;;;;;;114.82;66.43;;;;;;;;;;5043846;28;20068;-79
2022/05/20 06:17:19;;;;;;;110.32;64.32;;;;;;;13.40;100.00;68265.19;5016393;28;20077;-78
2022/05/20 06:19:44;;;;;;;106.88;59.53;;;;;;;13.38;100.00;68259.66;5015827;28;20057;-78
2022/05/20 06:22:10;;;;;;;88.53;52.42;;;;;;;13.41;100.00;68263.09;5025853;28;20064;-77
2022/05/20 06:24:36;;;;;;;89.95;54.80;;;;;;;13.50;100.00;68273.31;5026559;28;20136;-78
2022/05/20 06:27:02;;;;;;;78.03;56.60;;;;;;;;;;5022736;28;20681;-77
2022/05/20 06:29:27;;;;;;;80.03;56.30;;;;;;;13.71;100.00;68297.22;5026803;28;20041;-79
2022/05/20 06:31:53;;;;;;;68.07;47.72;;;;;;;13.79;100.00;68305.75;5027911;28;20514;-79
2022/05/20 06:34:18;;;;;;;71.38;46.60;;;;;;;;;;5025894;28;20073;-78
2022/05/20 06:42:11;;;;;;;59.85;42.45;;;;;;;14.16;100.00;68349.97;5007128;28;20124;-78
2022/05/20 06:44:37;;;;;;;57.17;44.55;;;;;;;14.23;100.00;68354.69;5011195;28;20053;-78
2022/05/20 06:47:03;;;;;;;51.88;38.30;;;;;;;14.31;100.00;68363.78;5022102;28;20041;-78
2022/05/20 06:49:28;;;;;;;55.38;39.58;;;;;;;14.43;100.00;68376.88;5041234;28;20056;-79
2022/05/20 06:51:54;;;;;;;50.53;38.58;;;;;;;14.53;100.00;68388.28;5028831;28;20040;-77
2022/05/20 06:54:20;;;;;;;53.95;37.28;;;;;;;14.52;100.00;68386.56;5027021;28;20510;-78
2022/05/20 06:56:46;;;;;;;49.33;38.92;;;;;;;14.60;100.00;68395.69;5028414;28;20045;-79
2022/05/20 06:59:12;;;;;;;47.72;36.72;;;;;;;;;;5048057;28;20040;-79
2022/05/20 07:01:38;;;;;;;49.47;37.55;;;;;;;14.80;100.00;68417.88;5034596;28;20442;-79
2022/05/20 07:04:04;;;;;;;51.40;38.65;;;;;;;;;;5041132;28;20079;-78
2022/05/20 07:06:30;;;;;;;41.55;33.38;;;;;;;;;;5027771;28;20042;-79
2022/05/20 07:08:56;;;;;;;41.83;34.38;;;;;;;;;;5009082;28;20042;-78
2022/05/20 07:11:23;;;;;;;39.63;30.50;;;;;;;14.99;100.00;68434.16;5020682;28;20037;-78
2022/05/20 07:13:52;;;;;;;39.92;32.13;;;;;;;15.07;100.00;68448.63;5026854;28;20033;-78
2022/05/20 07:16:17;;;;;;;40.58;32.78;;;;;;;;;;5025795;28;20144;-78
2022/05/20 07:18:43;;;;;;;39.22;33.10;;;;;;;;;;5042283;28;20119;-77
2022/05/20 07:21:08;;;;;;;39.72;33.78;;;;;;;;;;5021741;28;20040;-80
2022/05/20 07:23:34;;;;;;;43.70;31.35;;;;;;;15.61;100.00;68508.44;5028321;28;20056;-78
2022/05/20 07:26:00;;;;;;;40.42;32.28;;;;;;;;;;5029599;28;20047;-79
2022/05/20 07:28:26;;;;;;;39.42;31.52;;;;;;;;;;5030755;28;20044;-77
2022/05/20 07:30:51;;;;;;;37.53;29.92;;;;;;;;;;5030824;28;20041;-77
2022/05/20 07:33:16;;;;;;;37.95;30.83;;;;;;;15.85;100.00;68529.84;5022036;28;20069;-79
2022/05/20 07:35:42;;;;;;;36.15;26.88;;;;;;;15.99;100.00;68545.25;5034515;28;20062;-78
2022/05/20 07:38:08;;;;;;;35.65;29.75;;;;;;;16.11;100.00;68564.31;5043003;28;20099;-77
2022/05/20 07:40:33;;;;;;;36.35;26.55;;;;;;;;;;5026908;28;20052;-78
2022/05/20 07:42:58;;;;;;;31.23;26.08;;;;;;;;;;5008862;28;20045;-77
2022/05/20 07:45:24;;;;;;;31.65;25.80;;;;;;;;;;5035041;28;20037;-77
2022/05/20 07:47:50;;;;;;;33.80;27.17;;;;;;;16.38;97.14;68589.13;5042081;28;20532;-78
2022/05/20 07:50:16;;;;;;;34.85;29.40;;;;;;;16.53;99.30;68605.66;5046101;28;20044;-78
2022/05/20 07:55:33;;;;;;;30.25;22.83;;;;;;;16.74;94.48;68634.41;5027231;28;20544;-79
2022/05/20 07:58:00;;;;;;;23.75;21.13;;;;;;;16.61;89.08;68614.22;5025563;28;20037;-77
2022/05/20 08:00:25;;;;;;;28.80;22.55;;;;;;;;;;5032041;28;20041;-78
2022/05/20 08:02:52;;;;;;;27.08;19.90;;;;;;;;;;5026944;28;20552;-77
2022/05/20 08:05:20;;;;;;;18.98;14.77;;;;;;;16.78;81.35;68639.00;5014469;28;20104;-78
2022/05/20 08:07:46;;;;;;;27.03;20.07;;;;;;;16.84;87.06;68645.28;5007533;28;20042;-79
2022/05/20 08:10:15;;;;;;;25.20;20.98;;;;;;;;;;5012534;28;20129;-79
2022/05/20 08:12:40;;;;;;;27.55;21.33;;;;;;;;;;5005526;28;20061;-77
2022/05/20 08:15:06;;;;;;;21.90;18.03;;;;;;;17.33;86.57;68700.59;5015968;28;20058;-78
2022/05/20 08:17:36;;;;;;;15.52;11.25;;;;;;;17.17;78.12;68682.34;5020535;28;20359;-79
2022/05/20 08:20:01;;;;;;;16.15;11.77;;;;;;;;;;5018442;28;20083;-77
2022/05/20 08:22:27;;;;;;;17.15;11.00;;;;;;;;;;5031930;28;20045;-78
2022/05/20 08:24:54;;;;;;;14.85;11.32;;;;;;;17.67;81.39;68732.31;5038071;28;20045;-79
2022/05/20 08:27:21;;;;;;;18.65;13.82;;;;;;;17.77;80.98;68744.28;5052287;28;20079;-77
2022/05/20 08:29:47;;;;;;;19.95;14.23;;;;;;;17.61;81.08;68726.03;5040860;28;20770;-78
2022/05/20 08:32:13;;;;;;;19.75;13.90;;;;;;;17.68;80.75;68734.00;5030633;28;20044;-79
2022/05/20 08:34:38;;;;;;;15.85;11.48;;;;;;;17.80;78.21;68747.72;5043788;28;20120;-78
2022/05/20 08:37:04;;;;;;;17.60;12.52;;;;;;;17.82;79.56;68757.53;5025972;28;20454;-78
2022/05/20 08:39:29;;;;;;;19.70;14.20;;;;;;;18.03;81.38;68770.72;5006329;28;20176;-79
2022/05/20 08:41:55;;;;;;;18.70;14.43;;;;;;;18.16;81.02;68793.06;5026309;28;20036;-79
2022/05/20 08:44:21;;;;;;;18.23;14.25;;;;;;;;;;5042976;28;20119;-77
2022/05/20 08:46:48;;;;;;;15.27;10.95;;;;;;;18.30;77.52;68803.09;5019825;28;20056;-78
2022/05/20 08:49:15;;;;;;;15.15;10.38;;;;;;;;;;5007684;28;20044;-79
2022/05/20 08:51:42;;;;;;;14.38;11.38;;;;;;;;;;5007078;28;20135;-78
2022/05/20 08:54:08;;;;;;;16.45;12.23;;;;;;;;;;5023441;28;20034;-79
2022/05/20 08:56:37;;;;;;;15.02;10.93;;;;;;;18.70;76.25;68848.19;5021214;28;20174;-79
2022/05/20 08:59:09;;;;;;;13.02;9.25;;;;;;;18.80;74.69;68863.88;5019964;28;20041;-78
2022/05/20 09:01:35;;;;;;;15.00;9.80;;;;;;;;;;5008284;28;20046;-78
2022/05/20 09:04:01;;;;;;;12.05;10.70;;;;;;;;;;5037099;28;20040;-78
2022/05/20 09:06:26;;;;;;;12.30;10.23;;;;;;;;;;5056438;28;20045;-78
2022/05/20 09:09:14;;;;;;;12.77;9.50;;;;;;;18.96;72.82;68876.19;5037137;28;20469;-80
2022/05/20 09:11:44;;;;;;;12.75;9.85;;;;;;;18.94;71.26;68874.50;5021844;28;20049;-77
2022/05/20 09:17:15;;;;;;;14.82;9.30;;;;;;;19.33;74.54;68918.47;5040398;28;20092;-77
2022/05/20 09:20:04;;;;;;;14.23;10.25;;;;;;;19.53;73.10;68945.56;5025929;28;20414;-80
2022/05/20 09:22:37;;;;;;;15.65;10.15;;;;;;;19.31;72.95;68916.19;5026431;28;20037;-79
2022/05/20 09:25:14;;;;;;;13.32;9.90;;;;;;;19.46;72.87;68932.75;5027611;28;20432;-78
2022/05/20 09:27:40;;;;;;;13.60;8.82;;;;;;;19.60;73.70;68948.75;5026176;28;20399;-77
2022/05/20 09:30:06;;;;;;;11.82;7.85;;;;;;;;;;5027288;28;20052;-79
2022/05/20 09:32:47;;;;;;;9.07;6.53;;;;;;;;;;5032685;28;20045;-78
2022/05/20 09:35:15;;;;;;;9.27;6.00;;;;;;;;;;5019819;28;20044;-79
2022/05/20 09:37:40;;;;;;;8.40;5.78;;;;;;;19.67;65.26;68955.63;5024757;28;20042;-78
2022/05/20 09:40:34;;;;;;;8.43;5.97;;;;;;;19.64;66.51;68950.03;5026353;28;20083;-78
2022/05/20 09:43:27;;;;;;;10.38;7.35;;;;;;;19.72;66.28;68961.91;5011199;28;20049;-79
2022/05/20 09:45:55;;;;;;;12.88;9.02;;;;;;;19.70;64.44;68959.06;5019580;28;20042;-80
2022/05/20 09:48:51;;;;;;;10.75;7.82;;;;;;;19.73;70.00;68962.47;5022638;28;20057;-79
2022/05/20 09:51:32;;;;;;;10.02;7.45;;;;;;;19.80;66.71;68970.50;5014008;28;20136;-78
2022/05/20 09:54:12;;;;;;;11.85;7.93;;;;;;;19.81;66.04;68971.63;5025931;28;20132;-79
2022/05/20 09:56:45;;;;;;;11.65;8.23;;;;;;;19.84;67.09;68975.06;5046690;28;20041;-79
2022/05/20 09:59:20;;;;;;;10.18;7.97;;;;;;;19.91;65.97;68983.06;5037767;28;20039;-77
2022/05/20 10:01:58;;;;;;;10.77;7.90;;;;;;;20.04;68.05;68997.34;5063594;28;20048;-78
2022/05/20 10:04:52;;;;;;;10.20;8.07;;;;;;;20.03;65.75;69002.19;5030415;28;20044;-78
2022/05/20 10:07:30;;;;;;;10.85;8.27;;;;;;;20.19;68.87;69013.91;5023521;28;20549;-75
2022/05/20 10:10:15;;;;;;;11.07;7.30;;;;;;;20.43;67.24;69040.81;5030539;28;20120;-79
2022/05/20 10:12:44;;;;;;;10.40;7.00;;;;;;;;;;5027943;28;20042;-82
2022/05/20 10:15:32;;;;;;;10.80;7.82;;;;;;;20.91;64.11;69095.13;5029306;28;20521;-78
2022/05/20 10:18:45;;;;;;;8.93;6.78;;;;;;;20.88;65.60;69091.13;5041696;28;20045;-78
2022/05/20 10:21:21;;;;;;;11.85;7.05;;;;;;;20.68;59.96;69069.38;5018770;28;20041;-78
2022/05/20 10:24:20;;;;;;;11.15;7.78;;;;;;;20.57;62.14;69056.84;5037436;28;20087;-79
2022/05/20 10:27:00;;;;;;;10.15;7.20;;;;;;;;;;5028889;28;20122;-79
2022/05/20 10:32:34;;;;;;;11.90;7.45;;;;;;;;;;5026207;28;20091;-81
2022/05/20 10:35:02;;;;;;;11.00;7.47;;;;;;;21.21;65.50;69127.75;5010765;28;20056;-83
2022/05/20 10:37:54;;;;;;;12.10;6.97;;;;;;;21.25;62.38;69132.88;5008407;28;20037;-80
2022/05/20 10:40:33;;;;;;;12.98;7.75;;;;;;;21.17;63.81;69129.72;5028762;28;20537;-79
2022/05/20 10:42:58;;;;;;;;;;;;;;;;;;5025144;28;20552;-79
2022/05/20 10:48:35;;;;;;;10.15;7.45;;;;;;;;;;5028823;28;20129;-81
2022/05/20 10:51:18;;;;;;;8.98;7.07;;;;;;;21.61;63.52;69170.25;5024152;28;20102;-83
2022/05/20 10:54:02;;;;;;;10.82;7.15;;;;;;;21.80;62.57;69194.13;5034589;28;20041;-84
2022/05/20 10:56:54;;;;;;;9.00;7.40;;;;;;;21.77;62.14;69185.84;5029306;28;20045;-80
2022/05/20 10:59:32;;;;;;;11.35;8.27;;;;;;;;;;5022966;28;20065;-78
2022/05/20 11:02:04;;;;;;;11.98;7.50;;;;;;;;;;5029693;28;20066;-79
2022/05/20 11:04:51;;;;;;;10.75;8.65;;;;;;;22.08;61.70;69226.19;5035099;28;20044;-79
2022/05/20 11:07:46;;;;;;;10.25;7.55;;;;;;;22.27;64.35;69246.81;5027574;28;20044;-79
2022/05/20 11:10:38;;;;;;;10.55;7.90;;;;;;;22.33;63.29;69248.28;5026826;28;20041;-78
2022/05/20 11:13:25;;;;;;;10.65;7.50;;;;;;;22.44;60.87;69260.88;5005125;28;20458;-80
2022/05/20 11:15:59;;;;;;;15.90;9.55;;;;;;;;;;5039636;28;20049;-77
2022/05/20 11:18:43;;;;;;;12.48;9.18;;;;;;;22.26;63.00;69246.25;5027632;28;20110;-76
2022/05/20 11:21:48;;;;;;;12.70;9.07;;;;;;;22.27;62.36;69244.69;5017059;28;20033;-77
2022/05/20 11:24:14;;;;;;;12.13;9.02;;;;;;;22.60;64.32;69283.47;5032058;28;20556;-78
2022/05/20 11:26:57;;;;;;;14.53;9.17;;;;;;;22.63;64.61;69282.03;5044008;28;20044;-79
2022/05/20 11:29:32;;;;;;;12.85;9.48;;;;;;;22.78;62.41;69300.78;5047777;28;20283;-78
2022/05/20 11:32:02;;;;;;;16.05;9.68;;;;;;;;;;5039269;28;20041;-78
2022/05/20 11:35:04;;;;;;;12.98;10.57;;;;;;;22.91;62.79;69318.41;5020583;28;20128;-77
2022/05/20 11:37:53;;;;;;;14.23;11.07;;;;;;;22.90;61.69;69317.25;5008788;28;20042;-78
2022/05/20 11:40:28;;;;;;;14.52;10.98;;;;;;;22.69;63.78;69294.34;5018940;28;20041;-80
2022/05/20 11:42:59;;;;;;;14.88;9.77;;;;;;;22.98;63.92;69323.72;5028427;28;20569;-78
2022/05/20 11:45:30;;;;;;;14.20;11.73;;;;;;;23.12;63.11;69339.75;5027885;28;20060;-81
2022/05/20 11:48:30;;;;;;;17.73;11.90;;;;;;;23.18;63.83;69354.78;5026503;28;20112;-78
2022/05/20 11:51:18;;;;;;;13.98;10.95;;;;;;;23.31;63.91;69363.09;4965424;28;20037;-79
2022/05/20 11:54:18;;;;;;;12.68;10.20;;;;;;;23.27;62.95;69358.50;5026773;28;20053;-81
2022/05/20 11:56:51;;;;;;;14.77;10.40;;;;;;;23.32;65.01;69362.09;4987258;28;20044;-79
2022/05/20 11:59:25;;;;;;;17.15;11.38;;;;;;;23.38;64.30;69365.69;5024763;28;20056;-80
2022/05/20 12:01:54;;;;;;;14.32;10.43;;;;;;;23.41;62.98;69369.69;5023970;28;20053;-79
2022/05/20 12:04:23;;;;;;;13.68;10.38;;;;;;;23.41;63.28;69371.84;5023346;28;20041;-80
2022/05/20 12:06:56;;;;;;;12.05;10.10;;;;;;;23.50;61.81;69384.88;5023283;28;20045;-77
2022/05/20 12:09:47;;;;;;;13.45;11.15;;;;;;;23.48;63.27;69379.28;5022021;28;20029;-78
2022/05/20 12:12:17;;;;;;;12.55;10.85;;;;;;;23.64;64.05;69392.19;5006876;28;20116;-79
2022/05/20 12:15:06;;;;;;;17.55;11.80;;;;;;;23.81;63.55;69413.84;5014662;28;20398;-79
2022/05/20 12:17:32;;;;;;;14.05;11.32;;;;;;;;;;5016570;28;20055;-80
2022/05/20 12:26:21;;;;;;;16.35;11.80;;;;;;;23.10;63.04;69334.75;4989872;28;20433;-79
2022/05/20 12:28:46;;;;;;;15.93;11.90;;;;;;;22.97;65.23;69325.88;5013685;28;20046;-79
2022/05/20 12:31:23;;;;;;;15.25;11.68;;;;;;;22.84;65.58;69302.78;5022305;28;20045;-78
2022/05/20 12:34:19;;;;;;;15.90;11.63;;;;;;;22.74;65.39;69300.06;5020311;28;20386;-80
2022/05/20 12:36:44;;;;;;;15.38;12.90;;;;;;;22.68;67.21;69285.06;5001767;28;20053;-78
2022/05/20 12:39:10;;;;;;;16.50;12.63;;;;;;;22.63;67.21;69282.03;5021968;28;20052;-79